Terminal Aerodrome Forecast
Issued by NWS Twin Cities, MN

Home | Current Version | Previous Version | Text Only | Print | Product List | Glossary On
Versions: 1 2 3 4 5 6 7 8 9 10 11 12 13 14 15 16 17 18 19 20 21 22 23 24 25 26
000
FTUS43 KMPX 311100
TAFMSP
TAF
KMSP 311120Z 3112/0118 35014KT P6SM FEW035
     FM311800 36008KT P6SM FEW040
     FM312300 VRB03KT P6SM SKC
     FM010600 14004KT P6SM SKC
     FM011600 16012KT P6SM FEW150=

USA.gov is the U.S. government's official web portal to all federal, state and local government web resources and services.